createdAt,value
2022-07-26T00:01:24.074Z,5.28
2022-07-26T00:04:00.946Z,4.68
2022-07-26T00:06:29.773Z,4.07
2022-07-26T00:08:59.373Z,4.10
2022-07-26T00:11:28.985Z,3.75
2022-07-26T00:13:57.228Z,3.55
2022-07-26T00:16:25.615Z,3.65
2022-07-26T00:18:53.898Z,3.53
2022-07-26T00:21:22.605Z,3.40
2022-07-26T00:23:51.336Z,3.35
2022-07-26T00:26:21.316Z,2.83
2022-07-26T00:28:49.858Z,2.83
2022-07-26T00:31:18.157Z,2.83
2022-07-26T00:33:46.685Z,2.50
2022-07-26T00:36:15.030Z,2.35
2022-07-26T00:38:43.217Z,2.42
2022-07-26T00:41:12.083Z,2.13
2022-07-26T00:43:56.337Z,2.42
2022-07-26T00:46:24.725Z,1.75
2022-07-26T00:48:53.114Z,2.10
2022-07-26T00:51:22.147Z,2.20
2022-07-26T00:53:51.656Z,2.28
2022-07-26T00:56:20.255Z,2.40
2022-07-26T00:58:50.010Z,2.30
2022-07-26T01:01:18.290Z,2.80
2022-07-26T01:03:46.735Z,3.58
2022-07-26T01:06:15.017Z,3.35
2022-07-26T01:08:43.327Z,3.60
2022-07-26T01:11:11.682Z,2.78
2022-07-26T01:13:47.585Z,3.08
2022-07-26T01:16:18.018Z,3.40
2022-07-26T01:18:46.644Z,4.05
2022-07-26T01:21:15.648Z,3.05
2022-07-26T01:23:45.760Z,3.40
2022-07-26T01:26:14.029Z,3.28
2022-07-26T01:28:42.924Z,3.33
2022-07-26T01:31:11.540Z,2.97
2022-07-26T01:33:39.971Z,2.67
2022-07-26T01:36:08.854Z,3.10
2022-07-26T01:38:37.209Z,2.95
2022-07-26T01:41:07.108Z,2.80
2022-07-26T01:43:35.539Z,2.45
2022-07-26T01:46:04.734Z,2.50
2022-07-26T01:48:33.325Z,2.80
2022-07-26T01:51:02.553Z,2.15
2022-07-26T01:53:30.896Z,2.47
2022-07-26T01:55:59.476Z,2.72
2022-07-26T01:58:29.127Z,2.67
2022-07-26T02:00:57.453Z,2.35
2022-07-26T02:03:25.753Z,2.22
2022-07-26T02:05:53.988Z,2.45
2022-07-26T02:08:22.467Z,2.50
2022-07-26T02:11:02.577Z,2.10
2022-07-26T02:13:35.816Z,2.17
2022-07-26T02:16:05.510Z,1.75
2022-07-26T02:18:34.235Z,1.65
2022-07-26T02:21:03.590Z,2.03
2022-07-26T02:23:32.281Z,1.80
2022-07-26T02:26:01.832Z,1.35
2022-07-26T02:28:30.273Z,1.60
2022-07-26T02:30:59.952Z,1.23
2022-07-26T02:33:28.297Z,1.30
2022-07-26T02:35:56.889Z,1.25
2022-07-26T02:38:25.335Z,0.98
2022-07-26T02:40:53.821Z,1.08
2022-07-26T02:43:22.118Z,1.20
2022-07-26T02:46:01.026Z,1.15
2022-07-26T02:48:32.924Z,1.20
2022-07-26T02:51:01.422Z,0.82
2022-07-26T02:53:29.728Z,1.15
2022-07-26T02:55:57.944Z,1.20
2022-07-26T02:58:27.124Z,1.15
2022-07-26T03:00:55.750Z,1.30
2022-07-26T03:03:24.134Z,1.23
2022-07-26T03:05:53.832Z,1.02
2022-07-26T03:08:22.852Z,1.35
2022-07-26T03:10:51.255Z,1.20
2022-07-26T03:13:19.572Z,1.17
2022-07-26T03:15:48.369Z,1.20
2022-07-26T03:18:16.605Z,1.17
2022-07-26T03:20:45.031Z,1.35
2022-07-26T03:23:14.906Z,0.85
2022-07-26T03:25:43.282Z,1.33
2022-07-26T03:28:16.010Z,1.15
2022-07-26T03:30:47.345Z,1.02
2022-07-26T03:33:15.635Z,1.45
2022-07-26T03:35:44.691Z,1.23
2022-07-26T03:38:14.470Z,1.17
2022-07-26T03:40:42.678Z,1.02
2022-07-26T03:43:10.888Z,1.20
2022-07-26T03:45:39.125Z,1.40
2022-07-26T03:48:08.060Z,1.10
2022-07-26T03:50:36.295Z,1.40
2022-07-26T03:53:04.822Z,1.27
2022-07-26T03:55:52.008Z,1.30
2022-07-26T03:58:20.330Z,1.00
2022-07-26T04:00:48.613Z,1.33
2022-07-26T04:03:16.950Z,1.35
2022-07-26T04:05:48.568Z,1.40
2022-07-26T04:08:17.783Z,1.23
2022-07-26T04:10:51.423Z,1.38
2022-07-26T04:13:19.791Z,1.42
2022-07-26T04:15:48.209Z,1.17
2022-07-26T04:18:16.622Z,1.08
2022-07-26T04:20:45.239Z,1.27
2022-07-26T04:23:13.676Z,1.20
2022-07-26T04:25:42.610Z,1.17
2022-07-26T04:28:12.999Z,1.00
2022-07-26T04:30:42.180Z,1.10
2022-07-26T04:33:10.799Z,1.30
2022-07-26T04:35:39.200Z,1.45
2022-07-26T04:38:07.451Z,1.60
2022-07-26T04:40:40.758Z,1.10
2022-07-26T04:43:15.372Z,1.30
2022-07-26T04:45:46.680Z,1.58
2022-07-26T04:48:17.703Z,1.55
2022-07-26T04:50:45.980Z,1.33
2022-07-26T04:53:14.619Z,1.35
2022-07-26T04:55:43.550Z,1.30
2022-07-26T04:58:12.142Z,1.25
2022-07-26T05:01:08.610Z,1.17
2022-07-26T05:03:30.412Z,1.25
2022-07-26T05:05:58.659Z,1.10
2022-07-26T05:08:26.954Z,1.10
2022-07-26T05:10:56.078Z,1.23
2022-07-26T05:13:30.640Z,1.15
2022-07-26T05:16:00.134Z,1.02
2022-07-26T05:18:31.666Z,1.25
2022-07-26T05:21:15.340Z,1.20
2022-07-26T05:23:44.279Z,1.55
2022-07-26T05:26:12.875Z,1.40
2022-07-26T05:28:41.135Z,1.27
2022-07-26T05:31:09.518Z,1.20
2022-07-26T05:33:39.246Z,0.90
2022-07-26T05:36:07.946Z,1.20
2022-07-26T05:38:36.425Z,1.52
2022-07-26T05:41:04.763Z,1.20
2022-07-26T05:43:40.750Z,1.25
2022-07-26T05:46:11.578Z,1.30
2022-07-26T05:48:41.559Z,1.15
2022-07-26T05:51:10.168Z,1.30
2022-07-26T05:53:39.390Z,0.80
2022-07-26T05:56:08.422Z,1.10
2022-07-26T05:58:37.497Z,1.20
2022-07-26T06:01:05.825Z,1.10
2022-07-26T06:03:34.279Z,1.25
2022-07-26T06:06:03.841Z,0.85
2022-07-26T06:08:32.091Z,0.93
2022-07-26T06:11:00.281Z,0.98
2022-07-26T06:13:28.499Z,0.93
2022-07-26T06:15:56.798Z,1.27
2022-07-26T06:18:25.391Z,1.00
2022-07-26T06:20:54.058Z,1.08
2022-07-26T06:23:31.901Z,1.40
2022-07-26T06:26:05.176Z,0.88
2022-07-26T06:28:33.603Z,0.90
2022-07-26T06:31:02.018Z,0.90
2022-07-26T06:33:30.300Z,1.13
2022-07-26T06:35:58.553Z,1.02
2022-07-26T06:38:28.372Z,0.80
2022-07-26T06:40:56.548Z,1.10
2022-07-26T06:43:24.802Z,1.08
2022-07-26T06:45:53.611Z,0.98
2022-07-26T06:48:21.869Z,0.88
2022-07-26T06:50:51.600Z,0.60
2022-07-26T06:53:19.973Z,0.68
2022-07-26T06:55:49.498Z,0.60
2022-07-26T06:58:17.979Z,0.70
2022-07-26T07:00:46.266Z,0.90
2022-07-26T07:03:14.605Z,0.80
2022-07-26T07:05:47.930Z,0.70
2022-07-26T07:08:18.446Z,0.85
2022-07-26T07:10:50.973Z,0.50
2022-07-26T07:13:19.575Z,0.68
2022-07-26T07:15:48.013Z,0.90
2022-07-26T07:18:16.343Z,0.75
2022-07-26T07:20:44.535Z,1.00
2022-07-26T07:23:13.434Z,0.95
2022-07-26T07:25:41.688Z,0.80
2022-07-26T07:28:14.637Z,1.20
2022-07-26T07:30:43.331Z,0.90
2022-07-26T07:33:22.893Z,0.85
2022-07-26T07:35:52.102Z,0.88
2022-07-26T07:38:20.298Z,1.00
2022-07-26T07:40:50.754Z,0.90
2022-07-26T07:43:20.407Z,0.75
2022-07-26T07:45:48.655Z,0.82
2022-07-26T07:48:17.252Z,0.90
2022-07-26T07:50:45.750Z,1.00
2022-07-26T07:53:13.972Z,0.93
2022-07-26T07:55:43.999Z,1.02
2022-07-26T07:58:14.839Z,0.95
2022-07-26T08:00:44.871Z,0.85
2022-07-26T08:03:13.388Z,0.70
2022-07-26T08:05:46.465Z,0.68
2022-07-26T08:08:17.768Z,0.77
2022-07-26T08:10:52.061Z,0.75
2022-07-26T08:13:21.473Z,1.08
2022-07-26T08:15:51.779Z,0.85
2022-07-26T08:18:22.297Z,1.10
2022-07-26T08:20:51.349Z,0.80
2022-07-26T08:23:21.005Z,0.90
2022-07-26T08:25:57.118Z,0.88
2022-07-26T08:31:18.452Z,0.80
2022-07-26T08:33:47.151Z,1.00
2022-07-26T08:36:16.470Z,0.80
2022-07-26T08:38:44.956Z,0.90
2022-07-26T08:41:16.839Z,0.98
2022-07-26T08:43:51.762Z,0.88
2022-07-26T08:46:26.385Z,0.90
2022-07-26T08:48:55.454Z,1.00
2022-07-26T08:51:25.943Z,1.00
2022-07-26T08:54:02.315Z,0.80
2022-07-26T08:56:33.441Z,0.70
2022-07-26T08:59:18.758Z,0.80
2022-07-26T09:01:55.108Z,1.00
2022-07-26T09:04:33.900Z,0.90
2022-07-26T09:07:06.852Z,0.85
2022-07-26T09:09:37.258Z,0.90
2022-07-26T09:12:17.580Z,1.00
2022-07-26T09:14:47.719Z,0.80
2022-07-26T09:17:19.566Z,0.90
2022-07-26T09:20:06.498Z,0.73
2022-07-26T09:22:34.788Z,0.88
2022-07-26T09:25:03.113Z,0.90
2022-07-26T09:27:37.333Z,0.95
2022-07-26T09:30:10.174Z,0.90
2022-07-26T09:32:39.874Z,1.00
2022-07-26T09:35:37.008Z,0.80
2022-07-26T09:38:01.500Z,1.13
2022-07-26T09:40:35.970Z,1.00
2022-07-26T09:43:06.848Z,1.05
2022-07-26T09:45:38.493Z,0.90
2022-07-26T09:48:12.767Z,1.00
2022-07-26T09:50:48.553Z,0.85
2022-07-26T09:53:17.488Z,1.08
2022-07-26T09:55:57.140Z,1.10
2022-07-26T09:58:26.072Z,1.10
2022-07-26T10:00:58.959Z,1.13
2022-07-26T10:03:33.229Z,1.23
2022-07-26T10:06:02.550Z,1.42
2022-07-26T10:08:31.723Z,1.00
2022-07-26T10:11:04.636Z,1.20
2022-07-26T10:13:33.159Z,1.13
2022-07-26T10:16:02.168Z,1.10
2022-07-26T10:18:47.595Z,1.10
2022-07-26T10:21:23.709Z,1.20
2022-07-26T10:23:52.880Z,0.90
2022-07-26T10:26:44.623Z,1.23
2022-07-26T10:29:26.185Z,1.02
2022-07-26T10:32:17.465Z,0.90
2022-07-26T10:34:47.709Z,1.20
2022-07-26T10:37:27.875Z,1.33
2022-07-26T10:40:22.868Z,1.08
2022-07-26T10:42:51.145Z,1.00
2022-07-26T10:45:23.511Z,1.02
2022-07-26T10:48:12.051Z,1.20
2022-07-26T10:50:43.332Z,1.10
2022-07-26T10:53:18.199Z,1.08
2022-07-26T10:55:48.446Z,1.05
2022-07-26T10:58:16.983Z,1.25
2022-07-26T11:00:59.806Z,1.13
2022-07-26T11:03:38.886Z,1.33
2022-07-26T11:06:17.289Z,0.98
2022-07-26T11:08:48.522Z,1.10
2022-07-26T11:11:30.921Z,1.27
2022-07-26T11:14:07.748Z,1.30
2022-07-26T11:16:41.160Z,1.33
2022-07-26T11:19:17.408Z,1.35
2022-07-26T11:21:49.328Z,1.30
2022-07-26T11:24:17.591Z,1.50
2022-07-26T11:26:47.466Z,1.38
2022-07-26T11:29:17.440Z,1.30
2022-07-26T11:31:48.256Z,1.30
2022-07-26T11:34:22.246Z,0.93
2022-07-26T11:36:54.446Z,1.17
2022-07-26T11:39:24.256Z,1.30
2022-07-26T11:41:58.100Z,1.52
2022-07-26T11:44:27.532Z,1.50
2022-07-26T11:46:58.077Z,1.40
2022-07-26T11:49:51.958Z,1.50
2022-07-26T11:52:25.135Z,1.35
2022-07-26T11:54:55.721Z,1.38
2022-07-26T11:57:30.333Z,1.30
2022-07-26T12:00:00.218Z,1.17
2022-07-26T12:02:30.352Z,1.10
2022-07-26T12:05:15.889Z,1.40
2022-07-26T12:08:03.173Z,1.25
2022-07-26T12:10:31.634Z,1.25
2022-07-26T12:13:13.831Z,1.10
2022-07-26T12:15:46.633Z,1.30
2022-07-26T12:18:24.624Z,1.40
2022-07-26T12:21:04.652Z,1.27
2022-07-26T12:23:44.179Z,1.00
2022-07-26T12:26:23.458Z,1.15
2022-07-26T12:28:52.302Z,0.98
2022-07-26T12:31:25.405Z,1.20
2022-07-26T12:33:53.883Z,1.60
2022-07-26T12:36:28.171Z,1.55
2022-07-26T12:38:59.864Z,1.40
2022-07-26T12:41:37.085Z,1.50
2022-07-26T12:44:06.187Z,1.80
2022-07-26T12:46:35.611Z,1.38
2022-07-26T12:49:05.268Z,1.50
2022-07-26T12:51:33.731Z,1.38
2022-07-26T12:54:12.876Z,1.33
2022-07-26T12:56:41.384Z,1.48
2022-07-26T12:59:11.133Z,1.20
2022-07-26T13:01:46.119Z,1.02
2022-07-26T13:04:15.239Z,1.23
2022-07-26T13:06:43.778Z,1.25
2022-07-26T13:09:16.704Z,1.33
2022-07-26T13:11:45.312Z,1.25
2022-07-26T13:14:14.399Z,1.30
2022-07-26T13:16:42.930Z,1.50
2022-07-26T13:19:11.292Z,1.10
2022-07-26T13:21:39.488Z,1.40
2022-07-26T13:24:08.796Z,1.15
2022-07-26T13:26:39.173Z,1.58
2022-07-26T13:29:09.557Z,1.35
2022-07-26T13:31:38.216Z,1.25
2022-07-26T13:34:06.699Z,1.30
2022-07-26T13:36:35.282Z,1.10
2022-07-26T13:39:03.644Z,1.40
2022-07-26T13:41:31.830Z,1.20
2022-07-26T13:44:06.105Z,1.27
2022-07-26T13:46:34.676Z,1.50
2022-07-26T13:49:04.459Z,1.48
2022-07-26T13:51:51.834Z,1.73
2022-07-26T13:54:21.606Z,1.25
2022-07-26T13:56:50.260Z,1.30
2022-07-26T13:59:20.475Z,1.48
2022-07-26T14:01:49.052Z,1.50
2022-07-26T14:04:17.481Z,1.60
2022-07-26T14:06:46.230Z,1.60
2022-07-26T14:09:15.032Z,1.30
2022-07-26T14:11:44.253Z,1.60
2022-07-26T14:14:13.205Z,1.48
2022-07-26T14:16:43.265Z,1.17
2022-07-26T14:19:16.256Z,1.30
2022-07-26T14:21:58.940Z,1.63
2022-07-26T14:24:28.180Z,1.33
2022-07-26T14:26:59.301Z,1.10
2022-07-26T14:29:28.434Z,1.70
2022-07-26T14:31:58.590Z,1.60
2022-07-26T14:34:26.892Z,1.65
2022-07-26T14:36:55.237Z,1.80
2022-07-26T14:39:23.483Z,1.70
2022-07-26T14:41:51.957Z,1.83
2022-07-26T14:44:20.163Z,1.40
2022-07-26T14:46:48.807Z,1.35
2022-07-26T14:49:18.703Z,1.77
2022-07-26T14:51:47.996Z,1.73
2022-07-26T14:54:18.167Z,2.22
2022-07-26T14:56:46.353Z,2.00
2022-07-26T14:59:14.606Z,1.88
2022-07-26T15:01:43.358Z,1.90
2022-07-26T15:04:11.983Z,1.90
2022-07-26T15:06:42.162Z,2.10
2022-07-26T15:09:10.308Z,1.70
2022-07-26T15:11:38.620Z,2.00
2022-07-26T15:14:06.901Z,2.38
2022-07-26T15:16:35.259Z,2.25
2022-07-26T15:19:03.495Z,2.10
2022-07-26T15:21:31.764Z,1.70
2022-07-26T15:24:01.402Z,2.08
2022-07-26T15:26:30.034Z,1.88
2022-07-26T15:28:58.273Z,1.83
2022-07-26T15:31:37.223Z,1.90
2022-07-26T15:34:07.906Z,2.35
2022-07-26T15:36:36.237Z,1.98
2022-07-26T15:39:16.760Z,1.83
2022-07-26T15:41:47.415Z,1.90
2022-07-26T15:44:17.780Z,2.05
2022-07-26T15:46:47.997Z,2.03
2022-07-26T15:49:17.914Z,2.17
2022-07-26T15:51:46.599Z,1.92
2022-07-26T15:54:16.992Z,2.08
2022-07-26T15:56:45.663Z,2.05
2022-07-26T15:59:14.001Z,1.90
2022-07-26T16:01:42.598Z,2.05
2022-07-26T16:04:11.115Z,1.90
2022-07-26T16:06:40.012Z,1.70
2022-07-26T16:09:17.638Z,1.70
2022-07-26T16:11:49.596Z,1.77
2022-07-26T16:14:18.643Z,1.90
2022-07-26T16:16:47.504Z,1.80
2022-07-26T16:19:16.088Z,1.88
2022-07-26T16:21:44.594Z,2.03
2022-07-26T16:24:12.918Z,2.05
2022-07-26T16:26:42.614Z,1.80
2022-07-26T16:29:12.840Z,1.38
2022-07-26T16:31:42.380Z,2.10
2022-07-26T16:34:11.466Z,1.52
2022-07-26T16:36:40.061Z,1.90
2022-07-26T16:39:08.950Z,2.10
2022-07-26T16:41:37.899Z,2.03
2022-07-26T16:44:06.844Z,2.03
2022-07-26T16:46:36.561Z,2.15
2022-07-26T16:49:05.456Z,2.05
2022-07-26T16:51:33.767Z,2.20
2022-07-26T16:54:02.035Z,1.75
2022-07-26T16:56:30.290Z,2.13
2022-07-26T16:58:58.528Z,1.92
2022-07-26T17:01:26.813Z,1.75
2022-07-26T17:03:56.579Z,1.90
2022-07-26T17:06:24.889Z,2.17
2022-07-26T17:08:53.126Z,2.53
2022-07-26T17:11:21.678Z,2.30
2022-07-26T17:13:50.071Z,2.15
2022-07-26T17:16:24.483Z,2.50
2022-07-26T17:18:53.375Z,1.90
2022-07-26T17:21:23.505Z,2.00
2022-07-26T17:23:51.839Z,2.38
2022-07-26T17:26:20.750Z,2.05
2022-07-26T17:28:49.016Z,2.38
2022-07-26T17:31:17.762Z,2.17
2022-07-26T17:33:46.066Z,2.10
2022-07-26T17:36:24.279Z,1.90
2022-07-26T17:38:52.838Z,1.95
2022-07-26T17:41:23.747Z,2.10
2022-07-26T17:44:03.073Z,2.38
2022-07-26T17:46:32.818Z,2.15
2022-07-26T17:49:01.592Z,2.25
2022-07-26T17:51:31.801Z,1.92
2022-07-26T17:54:00.313Z,2.58
2022-07-26T17:56:28.944Z,2.00
2022-07-26T17:58:58.120Z,1.85
2022-07-26T18:01:26.628Z,2.53
2022-07-26T18:03:55.195Z,1.90
2022-07-26T18:06:23.586Z,1.92
2022-07-26T18:08:53.196Z,2.20
2022-07-26T18:11:21.455Z,2.08
2022-07-26T18:13:50.107Z,2.00
2022-07-26T18:16:19.071Z,1.92
2022-07-26T18:18:47.407Z,1.77
2022-07-26T18:21:15.718Z,1.65
2022-07-26T18:24:06.644Z,1.80
2022-07-26T18:26:33.654Z,1.55
2022-07-26T18:29:01.929Z,1.80
2022-07-26T18:31:30.285Z,2.35
2022-07-26T18:34:00.804Z,1.90
2022-07-26T18:36:32.602Z,1.75
2022-07-26T18:39:01.198Z,1.70
2022-07-26T18:41:30.621Z,1.98
2022-07-26T18:44:02.382Z,2.08
2022-07-26T18:46:30.685Z,2.15
2022-07-26T18:48:59.406Z,1.85
2022-07-26T18:51:27.979Z,2.08
2022-07-26T18:53:56.315Z,2.45
2022-07-26T18:56:24.929Z,2.25
2022-07-26T18:58:53.146Z,2.35
2022-07-26T19:01:22.792Z,2.17
2022-07-26T19:03:50.988Z,2.30
2022-07-26T19:06:19.206Z,2.35
2022-07-26T19:08:47.366Z,2.45
2022-07-26T19:11:15.638Z,2.97
2022-07-26T19:13:43.856Z,3.40
2022-07-26T19:16:12.091Z,2.67
2022-07-26T19:18:43.944Z,2.65
2022-07-26T19:21:16.735Z,2.50
2022-07-26T19:23:44.942Z,2.60
2022-07-26T19:26:13.092Z,2.50
2022-07-26T19:28:41.272Z,3.28
2022-07-26T19:31:09.492Z,3.38
2022-07-26T19:33:37.743Z,3.03
2022-07-26T19:36:07.915Z,2.08
2022-07-26T19:38:36.091Z,2.42
2022-07-26T19:41:04.330Z,2.85
2022-07-26T19:43:32.498Z,2.45
2022-07-26T19:46:02.217Z,3.20
2022-07-26T19:48:30.508Z,3.00
2022-07-26T19:50:58.801Z,2.90
2022-07-26T19:53:28.350Z,2.63
2022-07-26T19:55:56.546Z,2.53
2022-07-26T19:58:26.283Z,2.75
2022-07-26T20:00:55.366Z,2.67
2022-07-26T20:03:23.616Z,2.95
2022-07-26T20:05:53.838Z,2.83
2022-07-26T20:08:22.198Z,2.88
2022-07-26T20:10:52.203Z,2.95
2022-07-26T20:13:20.838Z,2.85
2022-07-26T20:15:54.236Z,2.70
2022-07-26T20:18:25.264Z,2.70
2022-07-26T20:20:56.294Z,3.20
2022-07-26T20:23:24.991Z,2.78
2022-07-26T20:25:54.805Z,2.97
2022-07-26T20:28:43.852Z,2.75
2022-07-26T20:31:12.912Z,2.58
2022-07-26T20:33:41.477Z,2.85
2022-07-26T20:36:10.036Z,2.95
2022-07-26T20:38:38.219Z,2.85
2022-07-26T20:41:08.235Z,2.35
2022-07-26T20:43:36.831Z,2.50
2022-07-26T20:46:05.280Z,2.45
2022-07-26T20:48:33.885Z,3.22
2022-07-26T20:51:04.149Z,2.75
2022-07-26T20:53:32.490Z,2.20
2022-07-26T20:56:00.819Z,2.47
2022-07-26T20:58:33.530Z,2.55
2022-07-26T21:01:02.039Z,2.70
2022-07-26T21:03:30.313Z,2.60
2022-07-26T21:05:58.605Z,2.80
2022-07-26T21:08:26.956Z,2.90
2022-07-26T21:10:55.354Z,2.80
2022-07-26T21:13:24.539Z,2.53
2022-07-26T21:15:54.583Z,2.33
2022-07-26T21:18:23.060Z,2.28
2022-07-26T21:20:51.288Z,2.38
2022-07-26T21:23:20.224Z,2.72
2022-07-26T21:25:49.144Z,2.60
2022-07-26T21:28:26.722Z,2.75
2022-07-26T21:30:56.484Z,2.60
2022-07-26T21:33:25.640Z,2.38
2022-07-26T21:35:53.951Z,2.28
2022-07-26T21:38:22.315Z,2.30
2022-07-26T21:40:51.632Z,2.28
2022-07-26T21:43:21.013Z,2.63
2022-07-26T21:45:49.331Z,2.70
2022-07-26T21:48:18.780Z,2.40
2022-07-26T21:50:47.010Z,2.25
2022-07-26T21:53:15.246Z,2.45
2022-07-26T21:55:43.442Z,2.17
2022-07-26T21:58:11.797Z,3.03
2022-07-26T22:00:40.860Z,3.08
2022-07-26T22:03:09.116Z,2.33
2022-07-26T22:05:42.676Z,2.05
2022-07-26T22:08:12.675Z,1.80
2022-07-26T22:10:44.390Z,2.05
2022-07-26T22:13:13.683Z,2.05
2022-07-26T22:15:43.087Z,2.15
2022-07-26T22:18:11.766Z,2.22
2022-07-26T22:20:42.157Z,2.20
2022-07-26T22:23:12.193Z,2.17
2022-07-26T22:25:40.976Z,2.30
2022-07-26T22:28:10.692Z,2.00
2022-07-26T22:30:39.575Z,2.38
2022-07-26T22:33:08.595Z,1.95
2022-07-26T22:35:37.109Z,2.08
2022-07-26T22:38:10.096Z,1.55
2022-07-26T22:40:39.375Z,2.22
2022-07-26T22:43:08.366Z,1.70
2022-07-26T22:45:37.156Z,1.73
2022-07-26T22:48:06.510Z,1.50
2022-07-26T22:50:35.267Z,1.63
2022-07-26T22:53:03.553Z,1.60
2022-07-26T22:55:33.410Z,1.90
2022-07-26T22:58:02.016Z,2.65
2022-07-26T23:00:30.474Z,1.95
2022-07-26T23:02:58.676Z,1.92
2022-07-26T23:05:45.776Z,1.60
2022-07-26T23:08:44.322Z,1.95
2022-07-26T23:11:05.916Z,1.77
2022-07-26T23:13:34.205Z,1.92
2022-07-26T23:16:02.458Z,1.70
2022-07-26T23:18:31.829Z,1.70
2022-07-26T23:21:00.340Z,1.92
2022-07-26T23:23:29.528Z,2.05
2022-07-26T23:25:59.644Z,2.20
2022-07-26T23:28:36.758Z,2.30
2022-07-26T23:31:11.158Z,2.20
2022-07-26T23:33:50.810Z,2.00
2022-07-26T23:36:22.419Z,2.40
2022-07-26T23:38:50.626Z,1.75
2022-07-26T23:41:19.214Z,2.10
2022-07-26T23:43:48.950Z,2.30
2022-07-26T23:46:17.450Z,2.58
2022-07-26T23:48:45.818Z,2.40
2022-07-26T23:51:14.638Z,2.58
2022-07-26T23:53:43.066Z,2.40
2022-07-26T23:56:11.334Z,2.70
2022-07-26T23:58:39.893Z,2.53
